Overview Statistics Trail Chart Weather Telemetry Raw packets
 

This is the latest recevied weather packets stored in our database for station/object SR8WXL-13. If no packets are shown the sender has not sent any weather packets the latest 10 day(s).

<< 33 34 35 36 37 38 39 >>
Time Temp. Humidity Pressure Rain* Wind** Luminosity Snow
1787948530 20° C 47% 1031.2 hPa 0 mm - - -
1787947759 20° C 48% 1031.1 hPa 0 mm - - -
1787946985 20° C 48% 1031.5 hPa 0 mm - - -
1787946224 20° C 49% 1031.6 hPa 0 mm - - -
1787945390 20° C 49% 1031.3 hPa 0 mm - - -
1787944513 17.78° C 52% 1031.3 hPa 0 mm - - -
1787943601 17.78° C 55% 1031.3 hPa 0 mm - - -
1787942835 17.78° C 55% 1031.6 hPa 0 mm - - -
1787941979 17.22° C 64% 1031.6 hPa 0 mm - - -
1787941252 16.11° C 62% 1031.5 hPa 0 mm - - -
1787940527 15° C 75% 1031.9 hPa 0 mm - - -
1787939690 16.11° C 76% 1032 hPa 0 mm - - -
1787938895 17.22° C 72% 1032 hPa 0 mm - - -
1787938019 17.78° C 68% 1031.9 hPa 0 mm - - -
1787937240 18.89° C 59% 1032 hPa 0 mm - - -
1787936355 21.11° C 57% 1032.1 hPa 0 mm - - -
1787935570 22.22° C 53% 1032.1 hPa 0 mm - - -
1787934705 22.78° C 46% 1032 hPa 0 mm - - -
1787933816 23.89° C 44% 1032.2 hPa 0 mm - - -
1787933033 25° C 42% 1032.3 hPa 0 mm - - -
1787932300 26.11° C 41% 1032.4 hPa 0 mm - - -
1787931503 26.11° C 41% 1032.4 hPa 0 mm - - -
1787930701 26.11° C 40% 1032.4 hPa 0 mm - - -
1787929894 26.11° C 39% 1032.5 hPa 0 mm - - -
1787929011 27.22° C 39% 1032.6 hPa 0 mm - - -

* Rain latest hour (hover to see other rain measurements)
** Current wind speed in m/s (hover to see current wind gust speed)